createdAt,value
2023-02-09T00:00:39.096Z,101126.31
2023-02-09T00:03:08.106Z,101122.13
2023-02-09T00:05:38.347Z,101123.88
2023-02-09T00:08:07.358Z,101122.28
2023-02-09T00:10:39.731Z,101131.91
2023-02-09T00:13:22.885Z,101133.03
2023-02-09T00:15:53.238Z,101125.59
2023-02-09T00:18:26.970Z,101129.13
2023-02-09T00:21:00.392Z,101126.41
2023-02-09T00:23:30.871Z,101127.19
2023-02-09T00:26:02.910Z,101125.44
2023-02-09T00:28:35.104Z,101118.53
2023-02-09T00:31:08.710Z,101115.00
2023-02-09T00:33:38.309Z,101115.00
2023-02-09T00:36:09.187Z,101125.28
2023-02-09T00:38:38.657Z,101113.25
2023-02-09T00:41:09.220Z,101115.13
2023-02-09T00:43:38.287Z,101111.75
2023-02-09T00:46:07.789Z,101117.22
2023-02-09T00:48:38.097Z,101114.78
2023-02-09T00:51:07.587Z,101114.91
2023-02-09T00:53:38.069Z,101109.91
2023-02-09T00:56:09.971Z,101110.06
2023-02-09T00:58:40.945Z,101112.09
2023-02-09T01:01:13.421Z,101106.44
2023-02-09T01:03:45.529Z,101099.16
2023-02-09T01:06:14.499Z,101096.59
2023-02-09T01:08:43.565Z,101100.91
2023-02-09T01:11:17.350Z,101108.78
2023-02-09T01:13:47.458Z,101102.03
2023-02-09T01:16:18.757Z,101098.91
2023-02-09T01:18:47.971Z,101099.25
2023-02-09T01:21:20.539Z,101105.63
2023-02-09T01:23:50.860Z,101099.81
2023-02-09T01:26:21.461Z,101098.50
2023-02-09T01:28:51.727Z,101102.00
2023-02-09T01:31:25.741Z,101105.41
2023-02-09T01:33:57.216Z,101100.41
2023-02-09T01:36:33.471Z,101103.94
2023-02-09T01:39:04.182Z,101103.13
2023-02-09T01:41:35.765Z,101100.69
2023-02-09T01:44:47.351Z,101100.69
2023-02-09T01:47:17.851Z,101100.19
2023-02-09T01:49:50.100Z,101092.59
2023-02-09T01:52:22.636Z,101082.31
2023-02-09T01:54:56.499Z,101085.81
2023-02-09T01:57:32.667Z,101079.88
2023-02-09T02:00:07.894Z,101074.88
2023-02-09T02:02:45.178Z,101080.19
2023-02-09T02:05:17.779Z,101071.13
2023-02-09T02:07:53.159Z,101065.31
2023-02-09T02:10:22.797Z,101065.47
2023-02-09T02:12:56.243Z,101060.47
2023-02-09T02:15:30.806Z,101059.81
2023-02-09T02:18:18.507Z,101061.03
2023-02-09T02:21:45.458Z,101044.88
2023-02-09T02:24:40.665Z,101043.53
2023-02-09T02:27:21.247Z,101039.63
2023-02-09T02:30:30.520Z,101045.06
2023-02-09T02:33:18.649Z,101042.91
2023-02-09T02:35:55.518Z,101034.56
2023-02-09T02:38:36.029Z,101040.66
2023-02-09T02:41:17.111Z,101034.03
2023-02-09T02:43:56.923Z,101036.09
2023-02-09T02:46:33.554Z,101028.66
2023-02-09T02:49:08.739Z,101021.25
2023-02-09T02:51:40.739Z,101025.56
2023-02-09T02:54:14.665Z,101023.94
2023-02-09T02:56:47.145Z,101024.09
2023-02-09T02:59:20.839Z,101014.91
2023-02-09T03:01:56.650Z,101023.72
2023-02-09T03:04:31.932Z,101016.16
2023-02-09T03:07:01.290Z,101028.19
2023-02-09T03:09:32.778Z,101025.91
2023-02-09T03:12:15.630Z,101032.81
2023-02-09T03:15:04.852Z,101025.41
2023-02-09T03:17:48.304Z,101018.91
2023-02-09T03:20:30.384Z,101031.91
2023-02-09T03:23:05.948Z,101020.28
2023-02-09T03:25:39.018Z,101017.22
2023-02-09T03:28:15.560Z,101024.09
2023-02-09T03:30:49.938Z,101017.34
2023-02-09T03:33:21.627Z,101011.53
2023-02-09T03:35:56.405Z,101010.88
2023-02-09T03:38:26.327Z,101017.91
2023-02-09T03:40:55.691Z,101021.44
2023-02-09T03:43:47.293Z,101017.41
2023-02-09T03:46:16.280Z,101016.56
2023-02-09T03:48:45.258Z,101012.41
2023-02-09T03:51:15.539Z,101016.84
2023-02-09T03:53:44.530Z,101017.00
2023-02-09T03:56:16.307Z,101010.25
2023-02-09T03:58:45.343Z,101017.94
2023-02-09T04:01:14.333Z,101028.22
2023-02-09T04:03:43.456Z,101013.09
2023-02-09T04:06:12.427Z,101011.50
2023-02-09T04:08:43.293Z,101027.03
2023-02-09T04:11:12.262Z,101025.41
2023-02-09T04:13:41.301Z,101019.63
2023-02-09T04:16:10.462Z,101025.72
2023-02-09T04:18:42.481Z,101019.06
2023-02-09T04:21:11.597Z,101030.31
2023-02-09T04:23:45.093Z,101033.16
2023-02-09T04:26:14.725Z,101035.03
2023-02-09T04:28:43.835Z,101020.72
2023-02-09T04:31:13.268Z,101022.91
2023-02-09T04:33:42.407Z,101028.31
2023-02-09T04:36:14.050Z,101037.91
2023-02-09T04:38:44.450Z,101034.81
2023-02-09T04:41:13.495Z,101044.28
2023-02-09T04:43:42.541Z,101041.72
2023-02-09T04:46:14.433Z,101043.75
2023-02-09T04:48:44.034Z,101048.22
2023-02-09T04:51:13.720Z,101057.66
2023-02-09T04:53:44.471Z,101050.78
2023-02-09T04:56:16.465Z,101043.22
2023-02-09T04:59:03.420Z,101049.31
2023-02-09T05:01:32.964Z,101042.69
2023-02-09T05:04:04.417Z,101047.84
2023-02-09T05:06:33.398Z,101051.19
2023-02-09T05:09:03.742Z,101052.16
2023-02-09T05:11:32.745Z,101062.41
2023-02-09T05:14:01.729Z,101054.72
2023-02-09T05:16:33.746Z,101067.00
2023-02-09T05:19:02.815Z,101065.38
2023-02-09T05:21:34.964Z,101061.22
2023-02-09T05:24:08.345Z,101056.22
2023-02-09T05:26:37.621Z,101070.78
2023-02-09T05:29:06.678Z,101071.75
2023-02-09T05:31:35.791Z,101076.06
2023-02-09T05:34:04.857Z,101081.19
2023-02-09T05:36:33.855Z,101082.16
2023-02-09T05:39:02.944Z,101072.97
2023-02-09T05:41:50.996Z,101075.69
2023-02-09T05:44:23.041Z,101082.03
2023-02-09T05:46:51.993Z,101090.66
2023-02-09T05:49:21.004Z,101080.53
2023-02-09T05:51:50.002Z,101079.03
2023-02-09T05:54:19.206Z,101076.63
2023-02-09T05:56:49.989Z,101079.44
2023-02-09T05:59:19.362Z,101090.94
2023-02-09T06:01:48.411Z,101088.63
2023-02-09T06:04:17.573Z,101088.75
2023-02-09T06:06:48.763Z,101087.16
2023-02-09T06:09:17.928Z,101089.72
2023-02-09T06:11:47.111Z,101079.47
2023-02-09T06:14:17.828Z,101077.84
2023-02-09T06:16:47.195Z,101070.28
2023-02-09T06:19:18.007Z,101072.16
2023-02-09T06:21:47.655Z,101074.84
2023-02-09T06:24:18.914Z,101071.50
2023-02-09T06:26:48.017Z,101073.22
2023-02-09T06:29:18.366Z,101074.31
2023-02-09T06:31:47.462Z,101077.00
2023-02-09T06:34:16.518Z,101074.56
2023-02-09T06:36:47.739Z,101080.78
2023-02-09T06:39:16.729Z,101075.78
2023-02-09T06:41:45.628Z,101085.22
2023-02-09T06:44:14.689Z,101092.91
2023-02-09T06:46:45.010Z,101087.78
2023-02-09T06:49:14.042Z,101092.22
2023-02-09T06:51:43.253Z,101094.00
2023-02-09T06:54:12.380Z,101093.44
2023-02-09T06:56:41.366Z,101094.41
2023-02-09T06:59:10.360Z,101091.16
2023-02-09T07:01:39.425Z,101092.91
2023-02-09T07:04:09.817Z,101089.78
2023-02-09T07:06:38.809Z,101094.25
2023-02-09T07:09:07.745Z,101097.50
2023-02-09T07:11:37.077Z,101098.44
2023-02-09T07:14:06.191Z,101109.34
2023-02-09T07:16:35.157Z,101099.09
2023-02-09T07:19:04.202Z,101097.50
2023-02-09T07:21:34.526Z,101100.06
2023-02-09T07:24:03.467Z,101101.00
2023-02-09T07:26:32.474Z,101110.56
2023-02-09T07:29:02.519Z,101101.25
2023-02-09T07:31:31.750Z,101103.00
2023-02-09T07:34:00.847Z,101111.38
2023-02-09T07:36:29.946Z,101113.97
2023-02-09T07:39:00.622Z,101105.31
2023-02-09T07:41:29.829Z,101108.69
2023-02-09T07:44:02.026Z,101110.31
2023-02-09T07:46:31.175Z,101109.34
2023-02-09T07:49:03.225Z,101131.25
2023-02-09T07:51:34.069Z,101118.31
2023-02-09T07:54:07.244Z,101119.78
2023-02-09T07:56:39.458Z,101114.53
2023-02-09T07:59:09.066Z,101124.53
2023-02-09T08:01:38.348Z,101119.91
2023-02-09T08:04:07.519Z,101122.22
2023-02-09T08:06:43.197Z,101117.78
2023-02-09T08:09:17.005Z,101118.34
2023-02-09T08:11:50.096Z,101112.13
2023-02-09T08:14:23.152Z,101121.06
2023-02-09T08:17:15.985Z,101126.47
2023-02-09T08:19:51.569Z,101120.53
2023-02-09T08:22:25.500Z,101116.19
2023-02-09T08:24:56.200Z,101128.88
2023-02-09T08:27:25.622Z,101135.34
2023-02-09T08:29:54.912Z,101129.91
2023-02-09T08:32:23.961Z,101121.25
2023-02-09T08:34:53.090Z,101114.19
2023-02-09T08:37:22.123Z,101119.84
2023-02-09T08:39:51.118Z,101112.63
2023-02-09T08:42:21.496Z,101118.38
2023-02-09T08:44:53.510Z,101116.72
2023-02-09T08:47:22.869Z,101117.50
2023-02-09T08:49:52.068Z,101120.81
2023-02-09T08:52:21.204Z,101131.75
2023-02-09T08:54:50.203Z,101131.38
2023-02-09T08:57:19.205Z,101130.09
2023-02-09T08:59:49.559Z,101124.59
2023-02-09T09:02:18.568Z,101131.16
2023-02-09T09:04:48.209Z,101127.25
2023-02-09T09:07:26.556Z,101137.88
2023-02-09T09:09:55.637Z,101131.38
2023-02-09T09:12:24.613Z,101135.84
2023-02-09T09:14:54.907Z,101138.69
2023-02-09T09:17:24.002Z,101137.34
2023-02-09T09:19:55.907Z,101138.56
2023-02-09T09:22:28.158Z,101132.66
2023-02-09T09:24:57.142Z,101137.25
2023-02-09T09:27:27.109Z,101137.63
2023-02-09T09:29:57.526Z,101131.41
2023-02-09T09:32:26.752Z,101131.13
2023-02-09T09:34:57.505Z,101131.94
2023-02-09T09:37:29.513Z,101138.47
2023-02-09T09:39:59.414Z,101139.91
2023-02-09T09:42:36.216Z,101134.31
2023-02-09T09:45:09.535Z,101127.91
2023-02-09T09:47:43.763Z,101127.41
2023-02-09T09:50:20.428Z,101135.66
2023-02-09T09:52:54.153Z,101139.41
2023-02-09T09:55:29.748Z,101145.38
2023-02-09T09:58:03.008Z,101149.06
2023-02-09T10:00:38.346Z,101134.84
2023-02-09T10:03:16.558Z,101139.50
2023-02-09T10:05:47.736Z,101129.44
2023-02-09T10:08:25.303Z,101141.38
2023-02-09T10:11:01.133Z,101132.44
2023-02-09T10:13:36.479Z,101128.47
2023-02-09T10:16:17.920Z,101121.41
2023-02-09T10:18:50.997Z,101121.00
2023-02-09T10:21:20.867Z,101119.41
2023-02-09T10:23:52.371Z,101117.72
2023-02-09T10:26:26.449Z,101124.03
2023-02-09T10:29:01.055Z,101122.75
2023-02-09T10:31:36.303Z,101123.09
2023-02-09T10:34:15.081Z,101114.94
2023-02-09T10:36:52.141Z,101113.44
2023-02-09T10:39:24.072Z,101113.09
2023-02-09T10:41:55.263Z,101108.31
2023-02-09T10:44:27.597Z,101103.09
2023-02-09T10:47:12.675Z,101096.31
2023-02-09T10:49:41.633Z,101094.13
2023-02-09T10:52:19.358Z,101101.72
2023-02-09T10:54:52.238Z,101091.25
2023-02-09T10:57:26.172Z,101081.56
2023-02-09T10:59:58.789Z,101080.84
2023-02-09T11:02:51.454Z,101076.75
2023-02-09T11:05:34.352Z,101068.03
2023-02-09T11:08:17.088Z,101066.53
2023-02-09T11:11:00.312Z,101069.22
2023-02-09T11:13:35.024Z,101072.28
2023-02-09T11:16:47.411Z,101063.31
2023-02-09T11:19:45.607Z,101058.56
2023-02-09T11:22:20.632Z,101055.97
2023-02-09T11:25:06.550Z,101055.38
2023-02-09T11:27:59.417Z,101051.78
2023-02-09T11:30:53.315Z,101049.38
2023-02-09T11:33:32.459Z,101046.34
2023-02-09T11:36:17.502Z,101040.38
2023-02-09T11:38:53.227Z,101039.75
2023-02-09T11:41:47.817Z,101031.34
2023-02-09T11:44:30.792Z,101033.31
2023-02-09T11:47:06.847Z,101042.16
2023-02-09T11:49:52.176Z,101031.72
2023-02-09T11:52:30.032Z,101031.72
2023-02-09T11:55:04.351Z,101029.91
2023-02-09T11:57:41.594Z,101026.50
2023-02-09T12:00:21.118Z,101033.13
2023-02-09T12:02:59.804Z,101032.50
2023-02-09T12:05:29.180Z,101034.13
2023-02-09T12:08:24.062Z,101030.56
2023-02-09T12:11:10.524Z,101029.41
2023-02-09T12:14:00.067Z,101030.66
2023-02-09T12:16:34.987Z,101034.25
2023-02-09T12:19:05.918Z,101033.72
2023-02-09T12:21:38.427Z,101033.50
2023-02-09T12:24:35.369Z,101033.13
2023-02-09T12:27:11.858Z,101037.13
2023-02-09T12:29:44.218Z,101041.94
2023-02-09T12:32:30.719Z,101028.47
2023-02-09T12:35:27.381Z,101033.06
2023-02-09T12:38:17.878Z,101035.06
2023-02-09T12:41:04.570Z,101038.25
2023-02-09T12:43:38.996Z,101030.22
2023-02-09T12:46:22.718Z,101037.06
2023-02-09T12:49:15.799Z,101028.66
2023-02-09T12:51:55.862Z,101033.47
2023-02-09T12:54:36.185Z,101032.91
2023-02-09T12:57:53.506Z,101038.56
2023-02-09T13:00:54.908Z,101031.72
2023-02-09T13:03:25.993Z,101034.34
2023-02-09T13:06:01.304Z,101039.94
2023-02-09T13:08:40.162Z,101046.72
2023-02-09T13:11:30.617Z,101039.88
2023-02-09T13:14:03.347Z,101031.81
2023-02-09T13:17:04.813Z,101036.56
2023-02-09T13:20:05.085Z,101038.72
2023-02-09T13:22:56.439Z,101026.66
2023-02-09T13:25:33.419Z,101033.19
2023-02-09T13:28:14.050Z,101035.16
2023-02-09T13:30:43.532Z,101032.25
2023-02-09T13:33:32.715Z,101024.41
2023-02-09T13:36:24.983Z,101019.13
2023-02-09T13:38:54.956Z,101033.63
2023-02-09T13:41:30.995Z,101041.59
2023-02-09T13:44:00.129Z,101038.34
2023-02-09T13:46:35.224Z,101049.66
2023-02-09T13:49:19.825Z,101041.38
2023-02-09T13:51:49.334Z,101045.91
2023-02-09T13:54:20.775Z,101055.44
2023-02-09T13:56:50.117Z,101057.38
2023-02-09T13:59:19.147Z,101064.31
2023-02-09T14:01:48.479Z,101065.00
2023-02-09T14:04:23.863Z,101064.78
2023-02-09T14:06:58.338Z,101068.09
2023-02-09T14:09:34.332Z,101066.41
2023-02-09T14:12:09.422Z,101071.38
2023-02-09T14:14:58.711Z,101063.69
2023-02-09T14:17:30.593Z,101067.97
2023-02-09T14:20:01.690Z,101066.31
2023-02-09T14:22:34.497Z,101059.25
2023-02-09T14:25:19.390Z,101061.97
2023-02-09T14:27:49.744Z,101062.50
2023-02-09T14:30:22.410Z,101066.00
2023-02-09T14:32:54.845Z,101058.31
2023-02-09T14:35:29.534Z,101056.78
2023-02-09T14:38:01.030Z,101055.88
2023-02-09T14:40:34.242Z,101059.19
2023-02-09T14:43:22.104Z,101067.44
2023-02-09T14:46:01.489Z,101057.47
2023-02-09T14:48:32.255Z,101057.34
2023-02-09T14:51:12.178Z,101061.81
2023-02-09T14:53:43.932Z,101062.88
2023-02-09T14:56:23.987Z,101058.75
2023-02-09T14:58:53.021Z,101066.59
2023-02-09T15:01:22.109Z,101071.50
2023-02-09T15:03:51.179Z,101071.84
2023-02-09T15:06:21.579Z,101072.19
2023-02-09T15:08:50.601Z,101067.72
2023-02-09T15:11:42.621Z,101062.22
2023-02-09T15:14:12.985Z,101044.78
2023-02-09T15:16:42.055Z,101052.13
2023-02-09T15:19:13.814Z,101055.88
2023-02-09T15:21:44.180Z,101054.94
2023-02-09T15:24:13.251Z,101042.84
2023-02-09T15:26:42.464Z,101048.88
2023-02-09T15:29:20.264Z,101031.41
2023-02-09T15:31:49.200Z,101041.34
2023-02-09T15:34:18.200Z,101045.44
2023-02-09T15:36:51.504Z,101052.88
2023-02-09T15:39:23.694Z,101054.22
2023-02-09T15:42:10.058Z,101061.34
2023-02-09T15:44:56.480Z,101061.03
2023-02-09T15:47:42.678Z,101071.75
2023-02-09T15:50:11.729Z,101073.50
2023-02-09T15:52:44.441Z,101072.56
2023-02-09T15:55:20.539Z,101060.41
2023-02-09T15:57:52.346Z,101070.59
2023-02-09T16:00:24.765Z,101074.00
2023-02-09T16:02:54.721Z,101079.16
2023-02-09T16:05:26.755Z,101074.00
2023-02-09T16:07:57.648Z,101077.56
2023-02-09T16:10:29.879Z,101066.38
2023-02-09T16:12:59.576Z,101068.16
2023-02-09T16:15:28.783Z,101073.50
2023-02-09T16:17:57.756Z,101082.25
2023-02-09T16:20:26.750Z,101077.09
2023-02-09T16:23:11.837Z,101083.41
2023-02-09T16:25:49.442Z,101080.97
2023-02-09T16:28:19.832Z,101072.53
2023-02-09T16:30:52.537Z,101092.47
2023-02-09T16:33:22.612Z,101086.81
2023-02-09T16:35:55.805Z,101089.72
2023-02-09T16:38:27.651Z,101090.88
2023-02-09T16:40:57.470Z,101093.78
2023-02-09T16:43:26.477Z,101105.28
2023-02-09T16:46:03.318Z,101112.56
2023-02-09T16:48:34.988Z,101126.81
2023-02-09T16:51:07.837Z,101127.16
2023-02-09T16:53:44.991Z,101120.53
2023-02-09T16:56:17.064Z,101122.00
2023-02-09T16:58:47.361Z,101141.44
2023-02-09T17:01:20.106Z,101142.09
2023-02-09T17:03:53.624Z,101143.38
2023-02-09T17:06:25.632Z,101144.69
2023-02-09T17:08:56.719Z,101141.44
2023-02-09T17:11:28.902Z,101138.41
2023-02-09T17:14:00.922Z,101142.09
2023-02-09T17:16:34.864Z,101137.25
2023-02-09T17:19:08.440Z,101149.72
2023-02-09T17:21:41.200Z,101151.81
2023-02-09T17:24:17.660Z,101143.44
2023-02-09T17:26:48.970Z,101130.00
2023-02-09T17:29:20.209Z,101134.72
2023-02-09T17:31:53.688Z,101136.78
2023-02-09T17:34:27.128Z,101133.09
2023-02-09T17:36:56.570Z,101145.69
2023-02-09T17:39:26.896Z,101145.19
2023-02-09T17:41:55.915Z,101151.50
2023-02-09T17:44:43.698Z,101163.78
2023-02-09T17:47:18.328Z,101164.25
2023-02-09T17:49:47.935Z,101156.69
2023-02-09T17:52:18.584Z,101160.53
2023-02-09T17:54:50.926Z,101150.72
2023-02-09T17:57:21.070Z,101170.88
2023-02-09T17:59:50.107Z,101174.75
2023-02-09T18:02:20.659Z,101171.66
2023-02-09T18:04:49.637Z,101183.28
2023-02-09T18:07:20.569Z,101173.25
2023-02-09T18:09:54.421Z,101187.31
2023-02-09T18:12:27.107Z,101193.47
2023-02-09T18:14:56.203Z,101199.88
2023-02-09T18:17:25.228Z,101207.00
2023-02-09T18:19:54.186Z,101206.50
2023-02-09T18:22:27.527Z,101203.69
2023-02-09T18:25:00.615Z,101203.53
2023-02-09T18:27:29.679Z,101203.31
2023-02-09T18:29:58.827Z,101213.34
2023-02-09T18:32:27.895Z,101222.31
2023-02-09T18:34:56.879Z,101219.41
2023-02-09T18:37:25.932Z,101223.91
2023-02-09T18:39:54.917Z,101222.59
2023-02-09T18:42:25.449Z,101232.44
2023-02-09T18:44:57.465Z,101233.38
2023-02-09T18:47:27.132Z,101228.38
2023-02-09T18:49:56.163Z,101225.00
2023-02-09T18:52:26.983Z,101231.28
2023-02-09T18:54:56.089Z,101230.63
2023-02-09T18:57:26.445Z,101227.38
2023-02-09T18:59:55.372Z,101232.88
2023-02-09T19:02:24.684Z,101236.38
2023-02-09T19:04:53.900Z,101243.50
2023-02-09T19:07:23.101Z,101247.00
2023-02-09T19:09:52.267Z,101245.56
2023-02-09T19:12:28.195Z,101250.22
2023-02-09T19:14:57.588Z,101253.13
2023-02-09T19:17:26.752Z,101262.91
2023-02-09T19:19:59.160Z,101254.00
2023-02-09T19:22:28.164Z,101259.75
2023-02-09T19:24:58.080Z,101269.59
2023-02-09T19:27:29.724Z,101274.22
2023-02-09T19:29:59.955Z,101263.13
2023-02-09T19:32:30.280Z,101271.94
2023-02-09T19:34:59.340Z,101271.31
2023-02-09T19:37:28.362Z,101265.63
2023-02-09T19:40:04.524Z,101262.41
2023-02-09T19:42:35.320Z,101271.91
2023-02-09T19:45:04.979Z,101270.56
2023-02-09T19:47:33.935Z,101269.25
2023-02-09T19:50:02.890Z,101281.47
2023-02-09T19:52:31.879Z,101269.56
2023-02-09T19:55:00.866Z,101281.78
2023-02-09T19:57:29.828Z,101284.50
2023-02-09T20:00:00.170Z,101282.06
2023-02-09T20:02:29.216Z,101279.63
2023-02-09T20:04:58.305Z,101282.34
2023-02-09T20:07:27.457Z,101285.09
2023-02-09T20:09:58.159Z,101287.81
2023-02-09T20:12:27.230Z,101281.03
2023-02-09T20:14:56.567Z,101283.63
2023-02-09T20:17:27.947Z,101288.91
2023-02-09T20:19:57.107Z,101288.28
2023-02-09T20:22:26.081Z,101287.44
2023-02-09T20:24:55.073Z,101279.19
2023-02-09T20:27:24.058Z,101274.50
2023-02-09T20:30:01.284Z,101277.38
2023-02-09T20:32:35.394Z,101283.59
2023-02-09T20:35:04.931Z,101282.97
2023-02-09T20:37:33.946Z,101293.41
2023-02-09T20:40:03.029Z,101308.06
2023-02-09T20:42:49.696Z,101304.00
2023-02-09T20:45:39.009Z,101311.25
2023-02-09T20:48:09.919Z,101315.19
2023-02-09T20:50:39.065Z,101308.41
2023-02-09T20:53:08.636Z,101313.06
2023-02-09T20:55:38.752Z,101321.88
2023-02-09T20:58:09.574Z,101318.50
2023-02-09T21:00:39.407Z,101322.16
2023-02-09T21:03:10.349Z,101325.06
2023-02-09T21:05:39.467Z,101336.56
2023-02-09T21:08:09.442Z,101329.16
2023-02-09T21:10:38.819Z,101329.31
2023-02-09T21:13:10.415Z,101331.88
2023-02-09T21:15:42.904Z,101331.06
2023-02-09T21:18:13.411Z,101337.03
2023-02-09T21:20:42.442Z,101337.03
2023-02-09T21:23:11.768Z,101329.31
2023-02-09T21:25:40.935Z,101334.44
2023-02-09T21:28:10.330Z,101334.59
2023-02-09T21:30:43.227Z,101327.00
2023-02-09T21:33:13.734Z,101335.66
2023-02-09T21:35:42.954Z,101322.00
2023-02-09T21:38:12.347Z,101331.63
2023-02-09T21:40:42.185Z,101326.75
2023-02-09T21:43:11.356Z,101323.78
2023-02-09T21:45:41.643Z,101325.81
2023-02-09T21:48:11.094Z,101330.44
2023-02-09T21:50:42.165Z,101328.81
2023-02-09T21:53:11.728Z,101326.53
2023-02-09T21:55:41.595Z,101317.16
2023-02-09T21:58:10.926Z,101320.72
2023-02-09T22:00:42.961Z,101321.66
2023-02-09T22:03:14.792Z,101315.03
2023-02-09T22:05:57.558Z,101317.72
2023-02-09T22:08:27.478Z,101323.06
2023-02-09T22:11:01.593Z,101315.47
2023-02-09T22:13:31.723Z,101318.19
2023-02-09T22:16:01.714Z,101331.19
2023-02-09T22:18:30.784Z,101330.50
2023-02-09T22:21:01.197Z,101336.63
2023-02-09T22:23:30.228Z,101335.28
2023-02-09T22:26:03.854Z,101326.06
2023-02-09T22:28:36.763Z,101340.03
2023-02-09T22:31:11.031Z,101338.41
2023-02-09T22:33:40.355Z,101341.94
2023-02-09T22:36:14.256Z,101343.69
2023-02-09T22:38:44.655Z,101349.81
2023-02-09T22:41:22.275Z,101356.03
2023-02-09T22:43:52.489Z,101350.22
2023-02-09T22:46:22.676Z,101346.03
2023-02-09T22:48:52.853Z,101347.25
2023-02-09T22:51:24.734Z,101350.78
2023-02-09T22:53:53.739Z,101344.94
2023-02-09T22:56:25.602Z,101339.78
2023-02-09T22:59:00.080Z,101346.72
2023-02-09T23:01:30.203Z,101355.22
2023-02-09T23:03:59.599Z,101362.16
2023-02-09T23:06:31.470Z,101370.03
2023-02-09T23:09:03.129Z,101358.09
2023-02-09T23:11:33.240Z,101363.25
2023-02-09T23:14:10.745Z,101363.53
2023-02-09T23:16:42.033Z,101373.13
2023-02-09T23:19:14.460Z,101367.34
2023-02-09T23:21:48.289Z,101359.19
2023-02-09T23:24:21.608Z,101371.69
2023-02-09T23:26:50.640Z,101364.50
2023-02-09T23:29:20.367Z,101369.09
2023-02-09T23:31:49.970Z,101366.00
2023-02-09T23:34:22.508Z,101367.06
2023-02-09T23:36:52.968Z,101368.03
2023-02-09T23:39:25.686Z,101371.56
2023-02-09T23:41:54.665Z,101363.00
2023-02-09T23:44:23.798Z,101372.66
2023-02-09T23:46:52.820Z,101366.53
2023-02-09T23:49:22.716Z,101373.44
2023-02-09T23:51:56.046Z,101373.56
2023-02-09T23:54:25.016Z,101373.84
2023-02-09T23:56:53.996Z,101370.75
2023-02-09T23:59:22.975Z,101369.25
